sensor_id;sensor_type;location;lat;lon;timestamp;pressure;altitude;pressure_sealevel;temperature;humidity
73453;BME280;61687;56.232;43.854;2022-10-22T00:00:13;101262.34;;;-1.15;80.13
73453;BME280;61687;56.232;43.854;2022-10-22T00:02:40;101266.41;;;-1.12;80.14
73453;BME280;61687;56.232;43.854;2022-10-22T00:05:06;101252.94;;;-1.12;80.08
73453;BME280;61687;56.232;43.854;2022-10-22T00:07:33;101261.56;;;-1.16;80.05
73453;BME280;61687;56.232;43.854;2022-10-22T00:09:59;101260.44;;;-1.20;80.38
73453;BME280;61687;56.232;43.854;2022-10-22T00:12:25;101262.03;;;-1.24;80.19
73453;BME280;61687;56.232;43.854;2022-10-22T00:14:51;101268.78;;;-1.26;80.22
73453;BME280;61687;56.232;43.854;2022-10-22T00:17:17;101273.31;;;-1.32;80.37
73453;BME280;61687;56.232;43.854;2022-10-22T00:19:43;101270.09;;;-1.29;80.34
73453;BME280;61687;56.232;43.854;2022-10-22T00:22:10;101269.56;;;-1.31;80.32
73453;BME280;61687;56.232;43.854;2022-10-22T00:24:38;101258.78;;;-1.36;80.30
73453;BME280;61687;56.232;43.854;2022-10-22T00:27:05;101257.66;;;-1.40;80.44
73453;BME280;61687;56.232;43.854;2022-10-22T00:29:31;101257.41;;;-1.39;80.24
73453;BME280;61687;56.232;43.854;2022-10-22T00:31:57;101253.13;;;-1.40;80.30
73453;BME280;61687;56.232;43.854;2022-10-22T00:34:24;101263.06;;;-1.40;80.29
73453;BME280;61687;56.232;43.854;2022-10-22T00:36:50;101263.06;;;-1.40;80.26
73453;BME280;61687;56.232;43.854;2022-10-22T00:39:18;101260.34;;;-1.46;80.25
73453;BME280;61687;56.232;43.854;2022-10-22T00:41:47;101268.13;;;-1.49;80.24
73453;BME280;61687;56.232;43.854;2022-10-22T00:47:17;101272.16;;;-1.52;80.21
73453;BME280;61687;56.232;43.854;2022-10-22T00:49:45;101266.22;;;-1.54;80.03
73453;BME280;61687;56.232;43.854;2022-10-22T00:52:12;101266.47;;;-1.61;80.20
73453;BME280;61687;56.232;43.854;2022-10-22T00:54:38;101267.78;;;-1.63;80.31
73453;BME280;61687;56.232;43.854;2022-10-22T00:57:06;101268.84;;;-1.64;80.45
73453;BME280;61687;56.232;43.854;2022-10-22T00:59:32;101269.69;;;-1.64;80.33
73453;BME280;61687;56.232;43.854;2022-10-22T01:01:58;101267.78;;;-1.63;80.51
73453;BME280;61687;56.232;43.854;2022-10-22T01:04:24;101265.09;;;-1.63;80.42
73453;BME280;61687;56.232;43.854;2022-10-22T01:06:50;101265.91;;;-1.63;80.48
73453;BME280;61687;56.232;43.854;2022-10-22T01:12:14;101279.59;;;-1.64;80.45
73453;BME280;61687;56.232;43.854;2022-10-22T01:18:03;101288.75;;;-1.65;80.42
73453;BME280;61687;56.232;43.854;2022-10-22T01:25:37;101289.78;;;-1.71;80.51
73453;BME280;61687;56.232;43.854;2022-10-22T01:30:35;101288.19;;;-1.73;80.47
73453;BME280;61687;56.232;43.854;2022-10-22T01:33:04;101288.19;;;-1.73;80.48
73453;BME280;61687;56.232;43.854;2022-10-22T01:35:34;101287.91;;;-1.71;80.43
73453;BME280;61687;56.232;43.854;2022-10-22T01:38:05;101294.88;;;-1.70;80.49
73453;BME280;61687;56.232;43.854;2022-10-22T01:40:32;101300.00;;;-1.68;80.45
73453;BME280;61687;56.232;43.854;2022-10-22T01:43:05;101296.78;;;-1.70;80.46
73453;BME280;61687;56.232;43.854;2022-10-22T01:45:43;101294.88;;;-1.75;80.51
73453;BME280;61687;56.232;43.854;2022-10-22T01:48:34;101301.63;;;-1.73;80.59
73453;BME280;61687;56.232;43.854;2022-10-22T01:54:12;101301.63;;;-1.67;80.50
73453;BME280;61687;56.232;43.854;2022-10-22T01:56:51;101297.88;;;-1.66;80.40
73453;BME280;61687;56.232;43.854;2022-10-22T01:59:43;101291.41;;;-1.70;80.48
73453;BME280;61687;56.232;43.854;2022-10-22T02:02:23;101298.94;;;-1.67;80.32
73453;BME280;61687;56.232;43.854;2022-10-22T02:04:59;101305.41;;;-1.68;80.24
73453;BME280;61687;56.232;43.854;2022-10-22T02:07:30;101301.63;;;-1.67;80.34
73453;BME280;61687;56.232;43.854;2022-10-22T02:09:58;101307.00;;;-1.67;80.28
73453;BME280;61687;56.232;43.854;2022-10-22T02:12:25;101296.28;;;-1.62;80.25
73453;BME280;61687;56.232;43.854;2022-10-22T02:14:53;101306.47;;;-1.64;80.43
73453;BME280;61687;56.232;43.854;2022-10-22T02:17:21;101315.38;;;-1.64;80.36
73453;BME280;61687;56.232;43.854;2022-10-22T02:20:02;101309.44;;;-1.66;80.22
73453;BME280;61687;56.232;43.854;2022-10-22T02:22:30;101314.00;;;-1.66;80.39
73453;BME280;61687;56.232;43.854;2022-10-22T02:24:57;101319.34;;;-1.71;80.38
73453;BME280;61687;56.232;43.854;2022-10-22T02:27:30;101327.38;;;-1.77;80.77
73453;BME280;61687;56.232;43.854;2022-10-22T02:30:01;101327.63;;;-1.78;80.61
73453;BME280;61687;56.232;43.854;2022-10-22T02:32:36;101320.88;;;-1.81;80.60
73453;BME280;61687;56.232;43.854;2022-10-22T02:35:04;101332.69;;;-1.82;80.62
73453;BME280;61687;56.232;43.854;2022-10-22T02:37:31;101329.22;;;-1.82;80.60
73453;BME280;61687;56.232;43.854;2022-10-22T02:39:57;101330.53;;;-1.85;80.59
73453;BME280;61687;56.232;43.854;2022-10-22T02:42:24;101326.50;;;-1.88;80.59
73453;BME280;61687;56.232;43.854;2022-10-22T02:44:51;101332.13;;;-1.89;80.85
73453;BME280;61687;56.232;43.854;2022-10-22T02:47:17;101336.72;;;-1.90;80.88
73453;BME280;61687;56.232;43.854;2022-10-22T02:49:43;101329.44;;;-1.89;80.77
73453;BME280;61687;56.232;43.854;2022-10-22T02:52:09;101343.69;;;-1.89;80.65
73453;BME280;61687;56.232;43.854;2022-10-22T02:54:35;101331.34;;;-1.90;80.70
73453;BME280;61687;56.232;43.854;2022-10-22T02:57:01;101336.13;;;-1.92;80.73
73453;BME280;61687;56.232;43.854;2022-10-22T02:59:26;101337.47;;;-1.94;80.63
73453;BME280;61687;56.232;43.854;2022-10-22T03:01:52;101338.78;;;-1.97;80.79
73453;BME280;61687;56.232;43.854;2022-10-22T03:04:18;101342.81;;;-1.99;80.78
73453;BME280;61687;56.232;43.854;2022-10-22T03:06:44;101339.56;;;-2.02;80.58
73453;BME280;61687;56.232;43.854;2022-10-22T03:09:13;101338.50;;;-2.00;80.86
73453;BME280;61687;56.232;43.854;2022-10-22T03:11:39;101337.91;;;-2.03;80.73
73453;BME280;61687;56.232;43.854;2022-10-22T03:14:05;101334.97;;;-2.06;81.02
73453;BME280;61687;56.232;43.854;2022-10-22T03:16:31;101333.06;;;-2.06;80.69
73453;BME280;61687;56.232;43.854;2022-10-22T03:18:56;101336.81;;;-2.07;80.89
73453;BME280;61687;56.232;43.854;2022-10-22T03:21:32;101338.66;;;-2.12;80.88
73453;BME280;61687;56.232;43.854;2022-10-22T03:24:02;101343.25;;;-2.08;80.78
73453;BME280;61687;56.232;43.854;2022-10-22T03:26:29;101347.28;;;-2.10;80.64
73453;BME280;61687;56.232;43.854;2022-10-22T03:28:55;101337.63;;;-2.11;80.90
73453;BME280;61687;56.232;43.854;2022-10-22T03:31:20;101343.53;;;-2.09;80.82
73453;BME280;61687;56.232;43.854;2022-10-22T03:33:46;101347.00;;;-2.09;80.64
73453;BME280;61687;56.232;43.854;2022-10-22T03:36:12;101354.56;;;-2.06;80.67
73453;BME280;61687;56.232;43.854;2022-10-22T03:38:39;101358.63;;;-2.03;80.71
73453;BME280;61687;56.232;43.854;2022-10-22T03:41:05;101352.41;;;-2.04;80.62
73453;BME280;61687;56.232;43.854;2022-10-22T03:43:33;101356.19;;;-2.05;80.57
73453;BME280;61687;56.232;43.854;2022-10-22T03:46:00;101354.56;;;-2.06;80.70
73453;BME280;61687;56.232;43.854;2022-10-22T03:48:26;101354.28;;;-2.09;80.75
73453;BME280;61687;56.232;43.854;2022-10-22T03:50:52;101355.59;;;-2.12;80.58
73453;BME280;61687;56.232;43.854;2022-10-22T03:53:18;101359.66;;;-2.09;80.80
73453;BME280;61687;56.232;43.854;2022-10-22T03:55:44;101354.28;;;-2.09;80.61
73453;BME280;61687;56.232;43.854;2022-10-22T03:58:10;101355.06;;;-2.09;80.51
73453;BME280;61687;56.232;43.854;2022-10-22T04:00:36;101358.03;;;-2.10;80.59
73453;BME280;61687;56.232;43.854;2022-10-22T04:03:02;101364.50;;;-2.06;80.49
73453;BME280;61687;56.232;43.854;2022-10-22T04:05:28;101363.13;;;-2.09;80.48
73453;BME280;61687;56.232;43.854;2022-10-22T04:07:54;101362.06;;;-2.08;80.54
73453;BME280;61687;56.232;43.854;2022-10-22T04:10:20;101358.59;;;-2.08;80.56
73453;BME280;61687;56.232;43.854;2022-10-22T04:12:47;101365.56;;;-2.07;80.68
73453;BME280;61687;56.232;43.854;2022-10-22T04:15:13;101368.53;;;-2.04;80.57
73453;BME280;61687;56.232;43.854;2022-10-22T04:17:39;101358.94;;;-1.99;80.61
73453;BME280;61687;56.232;43.854;2022-10-22T04:20:05;101361.09;;;-1.96;80.60
73453;BME280;61687;56.232;43.854;2022-10-22T04:22:34;101367.59;;;-1.87;80.39
73453;BME280;61687;56.232;43.854;2022-10-22T04:25:02;101370.91;;;-1.80;80.26
73453;BME280;61687;56.232;43.854;2022-10-22T04:27:32;101379.53;;;-1.73;80.29
73453;BME280;61687;56.232;43.854;2022-10-22T04:29:58;101376.09;;;-1.68;80.33
73453;BME280;61687;56.232;43.854;2022-10-22T04:32:28;101374.22;;;-1.62;80.31
73453;BME280;61687;56.232;43.854;2022-10-22T04:34:54;101382.59;;;-1.59;80.30
73453;BME280;61687;56.232;43.854;2022-10-22T04:37:19;101375.91;;;-1.56;80.33
73453;BME280;61687;56.232;43.854;2022-10-22T04:39:45;101379.69;;;-1.52;80.36
73453;BME280;61687;56.232;43.854;2022-10-22T04:42:11;101372.16;;;-1.50;80.28
73453;BME280;61687;56.232;43.854;2022-10-22T04:44:37;101370.03;;;-1.48;80.40
73453;BME280;61687;56.232;43.854;2022-10-22T04:47:03;101386.47;;;-1.44;80.19
73453;BME280;61687;56.232;43.854;2022-10-22T04:49:29;101378.13;;;-1.42;80.29
73453;BME280;61687;56.232;43.854;2022-10-22T04:51:55;101378.19;;;-1.37;80.30
73453;BME280;61687;56.232;43.854;2022-10-22T04:54:21;101376.81;;;-1.35;80.23
73453;BME280;61687;56.232;43.854;2022-10-22T04:56:47;101383.84;;;-1.28;80.17
73453;BME280;61687;56.232;43.854;2022-10-22T04:59:13;101384.13;;;-1.25;80.17
73453;BME280;61687;56.232;43.854;2022-10-22T05:01:41;101382.28;;;-1.19;80.15
73453;BME280;61687;56.232;43.854;2022-10-22T05:04:10;101388.25;;;-1.12;79.99
73453;BME280;61687;56.232;43.854;2022-10-22T05:06:37;101395.00;;;-1.04;80.16
73453;BME280;61687;56.232;43.854;2022-10-22T05:09:06;101394.50;;;-0.96;79.98
73453;BME280;61687;56.232;43.854;2022-10-22T05:11:36;101405.31;;;-0.85;79.81
73453;BME280;61687;56.232;43.854;2022-10-22T05:14:04;101403.19;;;-0.78;79.81
73453;BME280;61687;56.232;43.854;2022-10-22T05:16:33;101396.50;;;-0.70;79.78
73453;BME280;61687;56.232;43.854;2022-10-22T05:19:00;101405.94;;;-0.63;79.77
73453;BME280;61687;56.232;43.854;2022-10-22T05:21:26;101402.72;;;-0.54;79.61
73453;BME280;61687;56.232;43.854;2022-10-22T05:23:53;101403.84;;;-0.45;79.52
73453;BME280;61687;56.232;43.854;2022-10-22T05:26:21;101404.41;;;-0.33;79.70
73453;BME280;61687;56.232;43.854;2022-10-22T05:28:48;101416.81;;;-0.21;79.49
73453;BME280;61687;56.232;43.854;2022-10-22T05:31:15;101413.09;;;-0.10;79.50
73453;BME280;61687;56.232;43.854;2022-10-22T05:33:42;101411.47;;;-0.01;79.47
73453;BME280;61687;56.232;43.854;2022-10-22T05:36:14;101418.22;;;0.07;79.31
73453;BME280;61687;56.232;43.854;2022-10-22T05:38:41;101418.19;;;0.18;79.34
73453;BME280;61687;56.232;43.854;2022-10-22T05:41:15;101421.19;;;0.26;79.43
73453;BME280;61687;56.232;43.854;2022-10-22T05:43:41;101414.44;;;0.34;79.42
73453;BME280;61687;56.232;43.854;2022-10-22T05:46:10;101409.06;;;0.45;79.44
73453;BME280;61687;56.232;43.854;2022-10-22T05:48:36;101409.31;;;0.53;79.16
73453;BME280;61687;56.232;43.854;2022-10-22T05:51:10;101421.16;;;0.63;79.24
73453;BME280;61687;56.232;43.854;2022-10-22T05:53:39;101415.47;;;0.69;79.35
73453;BME280;61687;56.232;43.854;2022-10-22T05:56:11;101410.59;;;0.77;79.26
73453;BME280;61687;56.232;43.854;2022-10-22T05:58:37;101417.06;;;0.86;79.13
73453;BME280;61687;56.232;43.854;2022-10-22T06:01:13;101421.91;;;0.94;79.13
73453;BME280;61687;56.232;43.854;2022-10-22T06:03:40;101419.72;;;1.02;78.95
73453;BME280;61687;56.232;43.854;2022-10-22T06:08:54;101414.00;;;1.19;78.77
73453;BME280;61687;56.232;43.854;2022-10-22T06:11:22;101417.72;;;1.28;78.55
73453;BME280;61687;56.232;43.854;2022-10-22T06:13:48;101422.00;;;1.34;78.54
73453;BME280;61687;56.232;43.854;2022-10-22T06:16:15;101423.34;;;1.42;78.51
73453;BME280;61687;56.232;43.854;2022-10-22T06:18:41;101426.25;;;1.51;78.47
73453;BME280;61687;56.232;43.854;2022-10-22T06:21:12;101420.00;;;1.61;78.28
73453;BME280;61687;56.232;43.854;2022-10-22T06:23:39;101421.56;;;1.72;78.13
73453;BME280;61687;56.232;43.854;2022-10-22T06:26:06;101421.78;;;1.81;77.91
73453;BME280;61687;56.232;43.854;2022-10-22T06:28:32;101423.84;;;1.94;77.72
73453;BME280;61687;56.232;43.854;2022-10-22T06:31:00;101419.19;;;2.05;77.55
73453;BME280;61687;56.232;43.854;2022-10-22T06:33:27;101419.91;;;2.16;77.51
73453;BME280;61687;56.232;43.854;2022-10-22T06:35:53;101427.38;;;2.29;77.19
73453;BME280;61687;56.232;43.854;2022-10-22T06:38:19;101422.97;;;2.39;76.96
73453;BME280;61687;56.232;43.854;2022-10-22T06:40:45;101429.09;;;2.50;76.75
73453;BME280;61687;56.232;43.854;2022-10-22T06:43:12;101427.66;;;2.57;76.62
73453;BME280;61687;56.232;43.854;2022-10-22T06:45:38;101427.59;;;2.68;76.31
73453;BME280;61687;56.232;43.854;2022-10-22T06:48:05;101433.41;;;2.80;76.15
73453;BME280;61687;56.232;43.854;2022-10-22T06:50:33;101431.13;;;2.93;75.85
73453;BME280;61687;56.232;43.854;2022-10-22T06:52:59;101434.78;;;3.02;75.75
73453;BME280;61687;56.232;43.854;2022-10-22T06:55:25;101435.47;;;3.13;75.34
73453;BME280;61687;56.232;43.854;2022-10-22T06:57:51;101437.28;;;3.23;74.91
73453;BME280;61687;56.232;43.854;2022-10-22T07:00:17;101438.47;;;3.36;74.68
73453;BME280;61687;56.232;43.854;2022-10-22T07:02:43;101450.50;;;3.49;74.25
73453;BME280;61687;56.232;43.854;2022-10-22T07:05:09;101447.34;;;3.61;73.79
73453;BME280;61687;56.232;43.854;2022-10-22T07:07:34;101449.94;;;3.71;73.36
73453;BME280;61687;56.232;43.854;2022-10-22T07:10:00;101450.63;;;3.82;72.55
73453;BME280;61687;56.232;43.854;2022-10-22T07:12:26;101448.41;;;3.84;72.63
73453;BME280;61687;56.232;43.854;2022-10-22T07:14:52;101443.97;;;3.93;71.77
73453;BME280;61687;56.232;43.854;2022-10-22T07:17:18;101453.31;;;4.01;71.35
73453;BME280;61687;56.232;43.854;2022-10-22T07:19:43;101448.03;;;4.10;71.35
73453;BME280;61687;56.232;43.854;2022-10-22T07:22:09;101450.88;;;4.19;71.66
73453;BME280;61687;56.232;43.854;2022-10-22T07:24:35;101449.91;;;4.28;71.30
73453;BME280;61687;56.232;43.854;2022-10-22T07:27:01;101443.50;;;4.38;71.42
73453;BME280;61687;56.232;43.854;2022-10-22T07:29:27;101448.84;;;4.43;71.48
73453;BME280;61687;56.232;43.854;2022-10-22T07:31:53;101447.97;;;4.48;71.57
73453;BME280;61687;56.232;43.854;2022-10-22T07:34:19;101453.81;;;4.55;70.61
73453;BME280;61687;56.232;43.854;2022-10-22T07:36:44;101448.31;;;4.61;70.33
73453;BME280;61687;56.232;43.854;2022-10-22T07:39:10;101449.72;;;4.72;70.27
73453;BME280;61687;56.232;43.854;2022-10-22T07:41:36;101452.97;;;4.88;69.99
73453;BME280;61687;56.232;43.854;2022-10-22T07:44:02;101441.03;;;5.03;69.29
73453;BME280;61687;56.232;43.854;2022-10-22T07:46:28;101445.03;;;5.20;68.39
73453;BME280;61687;56.232;43.854;2022-10-22T07:48:54;101442.63;;;5.32;67.99
73453;BME280;61687;56.232;43.854;2022-10-22T07:51:20;101440.19;;;5.44;67.75
73453;BME280;61687;56.232;43.854;2022-10-22T07:53:46;101439.75;;;5.65;67.59
73453;BME280;61687;56.232;43.854;2022-10-22T07:56:12;101434.84;;;5.90;65.75
73453;BME280;61687;56.232;43.854;2022-10-22T07:58:38;101440.34;;;6.13;65.60
73453;BME280;61687;56.232;43.854;2022-10-22T08:01:04;101433.78;;;6.37;64.54
73453;BME280;61687;56.232;43.854;2022-10-22T08:03:30;101437.28;;;6.60;64.02
73453;BME280;61687;56.232;43.854;2022-10-22T08:05:56;101433.69;;;6.82;63.61
73453;BME280;61687;56.232;43.854;2022-10-22T08:08:22;101435.47;;;6.87;62.57
73453;BME280;61687;56.232;43.854;2022-10-22T08:10:50;101434.94;;;6.76;62.13
73453;BME280;61687;56.232;43.854;2022-10-22T08:13:18;101436.69;;;6.72;63.26
73453;BME280;61687;56.232;43.854;2022-10-22T08:15:44;101434.63;;;6.78;62.88
73453;BME280;61687;56.232;43.854;2022-10-22T08:18:11;101432.22;;;6.76;60.41
73453;BME280;61687;56.232;43.854;2022-10-22T08:20:38;101437.56;;;6.90;60.01
73453;BME280;61687;56.232;43.854;2022-10-22T08:23:05;101430.09;;;7.05;60.28
73453;BME280;61687;56.232;43.854;2022-10-22T08:25:31;101432.69;;;7.19;59.29
73453;BME280;61687;56.232;43.854;2022-10-22T08:27:57;101429.66;;;7.20;59.06
73453;BME280;61687;56.232;43.854;2022-10-22T08:30:23;101437.59;;;6.99;57.92
73453;BME280;61687;56.232;43.854;2022-10-22T08:32:52;101437.53;;;6.81;58.17
73453;BME280;61687;56.232;43.854;2022-10-22T08:35:18;101443.06;;;6.67;58.25
73453;BME280;61687;56.232;43.854;2022-10-22T08:37:44;101436.31;;;6.65;59.04
73453;BME280;61687;56.232;43.854;2022-10-22T08:40:22;101437.00;;;6.70;58.92
73453;BME280;61687;56.232;43.854;2022-10-22T08:50:48;101438.16;;;6.78;59.23
73453;BME280;61687;56.232;43.854;2022-10-22T08:56:14;101426.81;;;6.53;59.08
73453;BME280;61687;56.232;43.854;2022-10-22T08:58:52;101425.22;;;6.52;59.24
73453;BME280;61687;56.232;43.854;2022-10-22T09:01:42;101430.38;;;6.63;59.54
73453;BME280;61687;56.232;43.854;2022-10-22T09:06:41;101427.94;;;6.84;58.64
73453;BME280;61687;56.232;43.854;2022-10-22T09:09:14;101427.50;;;6.91;58.55
73453;BME280;61687;56.232;43.854;2022-10-22T09:11:43;101423.16;;;6.98;57.77
73453;BME280;61687;56.232;43.854;2022-10-22T09:14:18;101425.59;;;7.00;57.83
73453;BME280;61687;56.232;43.854;2022-10-22T09:25:20;101425.56;;;6.91;56.68
73453;BME280;61687;56.232;43.854;2022-10-22T09:27:48;101419.13;;;6.87;55.79
73453;BME280;61687;56.232;43.854;2022-10-22T09:30:26;101419.09;;;6.78;56.92
73453;BME280;61687;56.232;43.854;2022-10-22T09:33:00;101417.19;;;6.87;56.80
73453;BME280;61687;56.232;43.854;2022-10-22T09:35:26;101418.03;;;6.97;56.67
73453;BME280;61687;56.232;43.854;2022-10-22T09:37:55;101414.22;;;7.07;56.41
73453;BME280;61687;56.232;43.854;2022-10-22T09:40:22;101412.97;;;7.13;56.34
73453;BME280;61687;56.232;43.854;2022-10-22T09:42:48;101417.44;;;7.09;56.19
73453;BME280;61687;56.232;43.854;2022-10-22T09:45:24;101408.81;;;7.15;56.44
73453;BME280;61687;56.232;43.854;2022-10-22T09:48:08;101413.44;;;7.15;56.68
73453;BME280;61687;56.232;43.854;2022-10-22T09:50:47;101411.53;;;7.15;57.24
73453;BME280;61687;56.232;43.854;2022-10-22T09:53:46;101410.75;;;7.24;56.40
73453;BME280;61687;56.232;43.854;2022-10-22T09:56:26;101409.31;;;7.26;56.76
73453;BME280;61687;56.232;43.854;2022-10-22T09:58:55;101410.94;;;7.36;57.05
73453;BME280;61687;56.232;43.854;2022-10-22T10:01:28;101411.75;;;7.45;57.02
73453;BME280;61687;56.232;43.854;2022-10-22T10:04:01;101409.34;;;7.53;56.79
73453;BME280;61687;56.232;43.854;2022-10-22T10:06:30;101410.31;;;7.48;56.80
73453;BME280;61687;56.232;43.854;2022-10-22T10:08:57;101409.00;;;7.45;55.43
73453;BME280;61687;56.232;43.854;2022-10-22T10:11:28;101404.97;;;7.25;55.40
73453;BME280;61687;56.232;43.854;2022-10-22T10:19:34;101409.94;;;7.14;55.46
73453;BME280;61687;56.232;43.854;2022-10-22T10:22:10;101401.72;;;7.06;55.16
73453;BME280;61687;56.232;43.854;2022-10-22T10:27:27;101407.66;;;7.08;55.54
73453;BME280;61687;56.232;43.854;2022-10-22T10:35:15;101393.09;;;7.30;56.00
73453;BME280;61687;56.232;43.854;2022-10-22T10:40:41;101391.69;;;7.50;56.14
73453;BME280;61687;56.232;43.854;2022-10-22T10:43:10;101392.50;;;7.59;55.42
73453;BME280;61687;56.232;43.854;2022-10-22T10:51:39;101392.03;;;7.75;54.13
73453;BME280;61687;56.232;43.854;2022-10-22T11:07:52;101380.31;;;7.39;54.65
73453;BME280;61687;56.232;43.854;2022-10-22T11:10:45;101385.13;;;7.42;54.44
73453;BME280;61687;56.232;43.854;2022-10-22T11:15:40;101383.34;;;7.47;55.05
73453;BME280;61687;56.232;43.854;2022-10-22T11:18:59;101381.44;;;7.47;55.28
73453;BME280;61687;56.232;43.854;2022-10-22T11:23:43;101377.25;;;7.41;54.78
73453;BME280;61687;56.232;43.854;2022-10-22T11:26:24;101390.56;;;7.34;55.00
73453;BME280;61687;56.232;43.854;2022-10-22T11:28:52;101381.41;;;7.29;54.68
73453;BME280;61687;56.232;43.854;2022-10-22T11:31:22;101384.59;;;7.23;54.79
73453;BME280;61687;56.232;43.854;2022-10-22T11:33:54;101385.72;;;7.22;54.84
73453;BME280;61687;56.232;43.854;2022-10-22T11:36:23;101387.00;;;7.15;55.47
73453;BME280;61687;56.232;43.854;2022-10-22T11:38:52;101393.88;;;7.13;55.79
73453;BME280;61687;56.232;43.854;2022-10-22T11:41:23;101390.38;;;7.12;56.23
73453;BME280;61687;56.232;43.854;2022-10-22T11:46:28;101394.69;;;7.13;55.71
73453;BME280;61687;56.232;43.854;2022-10-22T11:51:39;101387.13;;;7.10;55.53
73453;BME280;61687;56.232;43.854;2022-10-22T11:57:19;101389.53;;;7.03;55.46
73453;BME280;61687;56.232;43.854;2022-10-22T11:59:55;101386.94;;;6.98;55.79
73453;BME280;61687;56.232;43.854;2022-10-22T12:02:50;101405.84;;;6.94;56.55
73453;BME280;61687;56.232;43.854;2022-10-22T12:07:52;101395.34;;;6.79;57.77
73453;BME280;61687;56.232;43.854;2022-10-22T12:10:26;101393.94;;;6.81;58.10
73453;BME280;61687;56.232;43.854;2022-10-22T12:12:57;101404.06;;;6.90;58.31
73453;BME280;61687;56.232;43.854;2022-10-22T12:15:26;101391.91;;;6.96;58.22
73453;BME280;61687;56.232;43.854;2022-10-22T12:17:58;101390.63;;;6.93;58.04
73453;BME280;61687;56.232;43.854;2022-10-22T12:20:26;101400.34;;;6.85;58.03
73453;BME280;61687;56.232;43.854;2022-10-22T12:22:54;101396.47;;;6.78;57.95
73453;BME280;61687;56.232;43.854;2022-10-22T12:25:25;101391.19;;;6.72;58.14
73453;BME280;61687;56.232;43.854;2022-10-22T12:27:56;101391.63;;;6.66;57.67
73453;BME280;61687;56.232;43.854;2022-10-22T12:30:29;101394.19;;;6.62;58.10
73453;BME280;61687;56.232;43.854;2022-10-22T12:32:57;101390.16;;;6.59;57.93
73453;BME280;61687;56.232;43.854;2022-10-22T12:35:28;101379.59;;;6.58;57.78
73453;BME280;61687;56.232;43.854;2022-10-22T12:37:56;101381.50;;;6.57;58.06
73453;BME280;61687;56.232;43.854;2022-10-22T12:40:27;101378.16;;;6.61;58.41
73453;BME280;61687;56.232;43.854;2022-10-22T12:42:58;101369.97;;;6.61;58.24
73453;BME280;61687;56.232;43.854;2022-10-22T12:45:27;101377.47;;;6.55;58.47
73453;BME280;61687;56.232;43.854;2022-10-22T12:48:02;101379.84;;;6.48;58.75
73453;BME280;61687;56.232;43.854;2022-10-22T12:50:35;101372.31;;;6.44;59.02
73453;BME280;61687;56.232;43.854;2022-10-22T12:53:16;101375.19;;;6.39;59.14
73453;BME280;61687;56.232;43.854;2022-10-22T12:55:48;101372.06;;;6.32;59.17
73453;BME280;61687;56.232;43.854;2022-10-22T12:58:29;101371.09;;;6.28;59.50
73453;BME280;61687;56.232;43.854;2022-10-22T13:00:58;101374.63;;;6.28;59.75
73453;BME280;61687;56.232;43.854;2022-10-22T13:03:36;101364.25;;;6.30;59.78
73453;BME280;61687;56.232;43.854;2022-10-22T13:06:32;101365.34;;;6.29;60.27
73453;BME280;61687;56.232;43.854;2022-10-22T13:11:31;101362.31;;;6.31;60.27
73453;BME280;61687;56.232;43.854;2022-10-22T13:14:25;101361.03;;;6.28;60.49
73453;BME280;61687;56.232;43.854;2022-10-22T13:17:17;101379.06;;;6.24;60.24
73453;BME280;61687;56.232;43.854;2022-10-22T13:22:38;101364.31;;;6.17;60.75
73453;BME280;61687;56.232;43.854;2022-10-22T13:25:24;101364.31;;;6.17;61.00
73453;BME280;61687;56.232;43.854;2022-10-22T13:27:56;101358.69;;;6.13;61.29
73453;BME280;61687;56.232;43.854;2022-10-22T13:32:56;101369.09;;;6.11;61.53
73453;BME280;61687;56.232;43.854;2022-10-22T13:35:25;101362.97;;;6.05;61.71
73453;BME280;61687;56.232;43.854;2022-10-22T13:37:52;101354.59;;;6.01;62.00
73453;BME280;61687;56.232;43.854;2022-10-22T13:40:19;101352.81;;;5.97;62.23
73453;BME280;61687;56.232;43.854;2022-10-22T13:42:45;101359.47;;;5.91;62.55
73453;BME280;61687;56.232;43.854;2022-10-22T13:45:12;101357.78;;;5.81;62.77
73453;BME280;61687;56.232;43.854;2022-10-22T13:47:38;101357.06;;;5.66;63.21
73453;BME280;61687;56.232;43.854;2022-10-22T13:50:16;101357.09;;;5.52;63.54
73453;BME280;61687;56.232;43.854;2022-10-22T13:52:49;101359.75;;;5.43;63.85
73453;BME280;61687;56.232;43.854;2022-10-22T13:55:24;101355.84;;;5.36;64.16
73453;BME280;61687;56.232;43.854;2022-10-22T13:57:54;101353.41;;;5.34;64.45
73453;BME280;61687;56.232;43.854;2022-10-22T14:00:21;101354.31;;;5.29;64.71
73453;BME280;61687;56.232;43.854;2022-10-22T14:02:48;101354.16;;;5.26;64.68
73453;BME280;61687;56.232;43.854;2022-10-22T14:05:16;101348.81;;;5.21;65.36
73453;BME280;61687;56.232;43.854;2022-10-22T14:07:42;101352.44;;;5.16;65.44
73453;BME280;61687;56.232;43.854;2022-10-22T14:10:16;101351.75;;;5.10;65.75
73453;BME280;61687;56.232;43.854;2022-10-22T14:12:42;101353.59;;;5.01;66.11
73453;BME280;61687;56.232;43.854;2022-10-22T14:15:11;101361.44;;;4.89;66.31
73453;BME280;61687;56.232;43.854;2022-10-22T14:17:38;101356.00;;;4.75;66.76
73453;BME280;61687;56.232;43.854;2022-10-22T14:20:05;101357.59;;;4.62;67.42
73453;BME280;61687;56.232;43.854;2022-10-22T14:22:32;101355.06;;;4.51;67.78
73453;BME280;61687;56.232;43.854;2022-10-22T14:24:57;101357.47;;;4.39;67.93
73453;BME280;61687;56.232;43.854;2022-10-22T14:27:23;101358.16;;;4.30;68.26
73453;BME280;61687;56.232;43.854;2022-10-22T14:29:49;101363.78;;;4.20;68.49
73453;BME280;61687;56.232;43.854;2022-10-22T14:32:17;101362.31;;;4.09;68.88
73453;BME280;61687;56.232;43.854;2022-10-22T14:34:46;101364.91;;;4.00;69.18
73453;BME280;61687;56.232;43.854;2022-10-22T14:37:17;101361.50;;;3.94;69.55
73453;BME280;61687;56.232;43.854;2022-10-22T14:39:45;101361.25;;;3.91;69.45